Terminal Aerodrome Forecast
Issued by NWS

Home | Current Version | Previous Version | Graphics & Text | Print | Product List | Glossary On
Versions: 1 2 3 4 5 6 7 8 9 10 11 12
000
FTUS43 KBIS 250550
TAFJMS
TAF
KJMS 250550Z 2506/2606 16005KT P6SM SCT100
     FM251500 22010KT P6SM SCT100 SCT200
     FM252200 20010KT P6SM VCTS BKN090CB
     FM260300 19006KT P6SM SCT100 BKN150=

USA.gov is the U.S. government's official web portal to all federal, state and local government web resources and services.